sensor_id;sensor_type;location;lat;lon;timestamp;P1;durP1;ratioP1;P2;durP2;ratioP2
16426;SDS011;8322;-33.900;151.170;2022-12-18T00:00:45;4.68;;;0.80;;
16426;SDS011;8322;-33.900;151.170;2022-12-18T00:03:17;6.05;;;2.55;;
16426;SDS011;8322;-33.900;151.170;2022-12-18T00:05:47;7.93;;;3.80;;
16426;SDS011;8322;-33.900;151.170;2022-12-18T00:08:19;1.73;;;0.77;;
16426;SDS011;8322;-33.900;151.170;2022-12-18T00:10:48;2.92;;;1.00;;
16426;SDS011;8322;-33.900;151.170;2022-12-18T00:13:18;1.45;;;0.77;;
16426;SDS011;8322;-33.900;151.170;2022-12-18T00:15:47;3.88;;;1.50;;
16426;SDS011;8322;-33.900;151.170;2022-12-18T00:18:19;3.85;;;0.98;;
16426;SDS011;8322;-33.900;151.170;2022-12-18T00:20:48;2.28;;;1.10;;
16426;SDS011;8322;-33.900;151.170;2022-12-18T00:23:18;2.53;;;0.85;;
16426;SDS011;8322;-33.900;151.170;2022-12-18T00:25:47;2.25;;;1.00;;
16426;SDS011;8322;-33.900;151.170;2022-12-18T00:28:17;3.50;;;0.90;;
16426;SDS011;8322;-33.900;151.170;2022-12-18T00:30:46;6.38;;;1.50;;
16426;SDS011;8322;-33.900;151.170;2022-12-18T00:33:19;4.07;;;1.50;;
16426;SDS011;8322;-33.900;151.170;2022-12-18T00:35:48;2.78;;;1.52;;
16426;SDS011;8322;-33.900;151.170;2022-12-18T00:38:18;1.85;;;1.25;;
16426;SDS011;8322;-33.900;151.170;2022-12-18T00:40:47;1.95;;;1.00;;
16426;SDS011;8322;-33.900;151.170;2022-12-18T00:43:17;2.38;;;0.88;;
16426;SDS011;8322;-33.900;151.170;2022-12-18T00:45:45;1.70;;;0.82;;
16426;SDS011;8322;-33.900;151.170;2022-12-18T00:48:14;2.08;;;1.30;;
16426;SDS011;8322;-33.900;151.170;2022-12-18T00:50:46;3.60;;;1.02;;
16426;SDS011;8322;-33.900;151.170;2022-12-18T00:53:16;4.18;;;1.83;;
16426;SDS011;8322;-33.900;151.170;2022-12-18T00:55:46;5.22;;;1.30;;
16426;SDS011;8322;-33.900;151.170;2022-12-18T00:58:16;3.53;;;0.90;;
16426;SDS011;8322;-33.900;151.170;2022-12-18T01:00:45;6.65;;;1.60;;
16426;SDS011;8322;-33.900;151.170;2022-12-18T01:03:15;3.83;;;1.35;;
16426;SDS011;8322;-33.900;151.170;2022-12-18T01:05:46;5.13;;;1.40;;
16426;SDS011;8322;-33.900;151.170;2022-12-18T01:08:15;4.22;;;1.40;;
16426;SDS011;8322;-33.900;151.170;2022-12-18T01:10:45;6.40;;;1.30;;
16426;SDS011;8322;-33.900;151.170;2022-12-18T01:13:15;3.45;;;0.90;;
16426;SDS011;8322;-33.900;151.170;2022-12-18T01:15:48;4.18;;;1.00;;
16426;SDS011;8322;-33.900;151.170;2022-12-18T01:18:17;3.17;;;1.00;;
16426;SDS011;8322;-33.900;151.170;2022-12-18T01:20:52;5.07;;;1.20;;
16426;SDS011;8322;-33.900;151.170;2022-12-18T01:23:21;3.60;;;0.95;;
16426;SDS011;8322;-33.900;151.170;2022-12-18T01:25:51;4.72;;;1.70;;
16426;SDS011;8322;-33.900;151.170;2022-12-18T01:28:20;4.47;;;1.30;;
16426;SDS011;8322;-33.900;151.170;2022-12-18T01:30:50;4.20;;;1.10;;
16426;SDS011;8322;-33.900;151.170;2022-12-18T01:33:19;4.10;;;1.25;;
16426;SDS011;8322;-33.900;151.170;2022-12-18T01:35:49;4.93;;;1.50;;
16426;SDS011;8322;-33.900;151.170;2022-12-18T01:38:20;7.55;;;1.70;;
16426;SDS011;8322;-33.900;151.170;2022-12-18T01:40:50;5.47;;;1.80;;
16426;SDS011;8322;-33.900;151.170;2022-12-18T01:46:09;10.48;;;1.83;;
16426;SDS011;8322;-33.900;151.170;2022-12-18T01:48:39;7.22;;;1.58;;
16426;SDS011;8322;-33.900;151.170;2022-12-18T01:51:09;10.18;;;2.17;;
16426;SDS011;8322;-33.900;151.170;2022-12-18T01:53:41;9.13;;;2.00;;
16426;SDS011;8322;-33.900;151.170;2022-12-18T01:56:12;9.18;;;2.17;;
16426;SDS011;8322;-33.900;151.170;2022-12-18T01:58:45;12.30;;;2.25;;
16426;SDS011;8322;-33.900;151.170;2022-12-18T02:01:15;7.28;;;2.05;;
16426;SDS011;8322;-33.900;151.170;2022-12-18T02:03:45;9.90;;;1.88;;
16426;SDS011;8322;-33.900;151.170;2022-12-18T02:06:15;9.98;;;1.48;;
16426;SDS011;8322;-33.900;151.170;2022-12-18T02:08:50;9.93;;;2.00;;
16426;SDS011;8322;-33.900;151.170;2022-12-18T02:11:24;9.60;;;2.03;;
16426;SDS011;8322;-33.900;151.170;2022-12-18T02:13:59;12.57;;;2.30;;
16426;SDS011;8322;-33.900;151.170;2022-12-18T02:16:34;9.23;;;2.20;;
16426;SDS011;8322;-33.900;151.170;2022-12-18T02:19:06;7.50;;;1.75;;
16426;SDS011;8322;-33.900;151.170;2022-12-18T02:21:40;9.50;;;1.35;;
16426;SDS011;8322;-33.900;151.170;2022-12-18T02:24:17;5.65;;;1.58;;
16426;SDS011;8322;-33.900;151.170;2022-12-18T02:26:54;5.80;;;1.40;;
16426;SDS011;8322;-33.900;151.170;2022-12-18T02:29:25;8.00;;;1.50;;
16426;SDS011;8322;-33.900;151.170;2022-12-18T02:31:57;7.88;;;1.80;;
16426;SDS011;8322;-33.900;151.170;2022-12-18T02:34:27;9.02;;;2.20;;
16426;SDS011;8322;-33.900;151.170;2022-12-18T02:36:58;7.53;;;2.05;;
16426;SDS011;8322;-33.900;151.170;2022-12-18T02:39:29;12.88;;;1.98;;
16426;SDS011;8322;-33.900;151.170;2022-12-18T02:42:01;9.45;;;1.65;;
16426;SDS011;8322;-33.900;151.170;2022-12-18T02:44:33;16.75;;;2.88;;
16426;SDS011;8322;-33.900;151.170;2022-12-18T02:47:03;8.65;;;1.48;;
16426;SDS011;8322;-33.900;151.170;2022-12-18T02:49:34;5.95;;;1.50;;
16426;SDS011;8322;-33.900;151.170;2022-12-18T02:52:10;9.27;;;1.75;;
16426;SDS011;8322;-33.900;151.170;2022-12-18T02:54:49;9.75;;;1.67;;
16426;SDS011;8322;-33.900;151.170;2022-12-18T02:57:23;6.68;;;1.48;;
16426;SDS011;8322;-33.900;151.170;2022-12-18T02:59:55;6.38;;;1.38;;
16426;SDS011;8322;-33.900;151.170;2022-12-18T03:02:29;8.43;;;1.63;;
16426;SDS011;8322;-33.900;151.170;2022-12-18T03:05:01;6.40;;;1.40;;
16426;SDS011;8322;-33.900;151.170;2022-12-18T03:07:34;8.45;;;1.65;;
16426;SDS011;8322;-33.900;151.170;2022-12-18T03:10:05;7.88;;;1.70;;
16426;SDS011;8322;-33.900;151.170;2022-12-18T03:12:37;6.53;;;1.65;;
16426;SDS011;8322;-33.900;151.170;2022-12-18T03:15:09;4.95;;;1.42;;
16426;SDS011;8322;-33.900;151.170;2022-12-18T03:17:39;7.50;;;1.20;;
16426;SDS011;8322;-33.900;151.170;2022-12-18T03:20:12;7.95;;;1.60;;
16426;SDS011;8322;-33.900;151.170;2022-12-18T03:22:42;9.73;;;1.83;;
16426;SDS011;8322;-33.900;151.170;2022-12-18T03:25:13;8.73;;;1.63;;
16426;SDS011;8322;-33.900;151.170;2022-12-18T03:27:46;6.25;;;1.40;;
16426;SDS011;8322;-33.900;151.170;2022-12-18T03:30:17;8.27;;;1.60;;
16426;SDS011;8322;-33.900;151.170;2022-12-18T03:32:47;4.95;;;1.60;;
16426;SDS011;8322;-33.900;151.170;2022-12-18T03:35:20;8.57;;;2.10;;
16426;SDS011;8322;-33.900;151.170;2022-12-18T03:37:50;9.02;;;1.90;;
16426;SDS011;8322;-33.900;151.170;2022-12-18T03:40:20;10.48;;;2.17;;
16426;SDS011;8322;-33.900;151.170;2022-12-18T03:42:56;9.77;;;1.95;;
16426;SDS011;8322;-33.900;151.170;2022-12-18T03:45:30;7.90;;;1.90;;
16426;SDS011;8322;-33.900;151.170;2022-12-18T03:48:02;8.10;;;1.92;;
16426;SDS011;8322;-33.900;151.170;2022-12-18T03:50:37;6.13;;;1.40;;
16426;SDS011;8322;-33.900;151.170;2022-12-18T03:53:13;10.60;;;1.30;;
16426;SDS011;8322;-33.900;151.170;2022-12-18T03:55:44;5.93;;;1.45;;
16426;SDS011;8322;-33.900;151.170;2022-12-18T03:58:16;6.80;;;1.70;;
16426;SDS011;8322;-33.900;151.170;2022-12-18T04:00:47;9.02;;;1.92;;
16426;SDS011;8322;-33.900;151.170;2022-12-18T04:03:17;8.73;;;1.65;;
16426;SDS011;8322;-33.900;151.170;2022-12-18T04:05:48;5.78;;;1.90;;
16426;SDS011;8322;-33.900;151.170;2022-12-18T04:08:19;6.43;;;1.42;;
16426;SDS011;8322;-33.900;151.170;2022-12-18T04:10:49;8.25;;;1.77;;
16426;SDS011;8322;-33.900;151.170;2022-12-18T04:13:23;7.90;;;1.77;;
16426;SDS011;8322;-33.900;151.170;2022-12-18T04:15:53;6.90;;;1.90;;
16426;SDS011;8322;-33.900;151.170;2022-12-18T04:18:23;4.75;;;1.58;;
16426;SDS011;8322;-33.900;151.170;2022-12-18T04:20:52;7.68;;;1.50;;
16426;SDS011;8322;-33.900;151.170;2022-12-18T04:23:22;6.82;;;1.40;;
16426;SDS011;8322;-33.900;151.170;2022-12-18T04:25:51;6.82;;;1.25;;
16426;SDS011;8322;-33.900;151.170;2022-12-18T04:28:21;4.90;;;1.30;;
16426;SDS011;8322;-33.900;151.170;2022-12-18T04:30:52;7.18;;;1.40;;
16426;SDS011;8322;-33.900;151.170;2022-12-18T04:33:22;4.63;;;1.40;;
16426;SDS011;8322;-33.900;151.170;2022-12-18T04:35:51;8.13;;;1.38;;
16426;SDS011;8322;-33.900;151.170;2022-12-18T04:38:21;5.75;;;1.40;;
16426;SDS011;8322;-33.900;151.170;2022-12-18T04:40:50;7.40;;;1.50;;
16426;SDS011;8322;-33.900;151.170;2022-12-18T04:43:20;8.35;;;1.70;;
16426;SDS011;8322;-33.900;151.170;2022-12-18T04:45:49;10.52;;;1.60;;
16426;SDS011;8322;-33.900;151.170;2022-12-18T04:48:21;4.88;;;1.77;;
16426;SDS011;8322;-33.900;151.170;2022-12-18T04:50:50;7.05;;;1.38;;
16426;SDS011;8322;-33.900;151.170;2022-12-18T04:53:20;5.80;;;1.40;;
16426;SDS011;8322;-33.900;151.170;2022-12-18T04:55:49;6.72;;;1.63;;
16426;SDS011;8322;-33.900;151.170;2022-12-18T04:58:19;8.35;;;1.60;;
16426;SDS011;8322;-33.900;151.170;2022-12-18T05:00:48;8.57;;;1.33;;
16426;SDS011;8322;-33.900;151.170;2022-12-18T05:03:18;9.25;;;1.35;;
16426;SDS011;8322;-33.900;151.170;2022-12-18T05:05:51;4.60;;;1.05;;
16426;SDS011;8322;-33.900;151.170;2022-12-18T05:08:20;4.80;;;1.15;;
16426;SDS011;8322;-33.900;151.170;2022-12-18T05:10:50;6.20;;;1.40;;
16426;SDS011;8322;-33.900;151.170;2022-12-18T05:13:27;5.88;;;1.23;;
16426;SDS011;8322;-33.900;151.170;2022-12-18T05:15:56;6.95;;;2.00;;
16426;SDS011;8322;-33.900;151.170;2022-12-18T05:18:26;8.73;;;2.20;;
16426;SDS011;8322;-33.900;151.170;2022-12-18T05:20:58;9.30;;;1.63;;
16426;SDS011;8322;-33.900;151.170;2022-12-18T05:23:27;6.10;;;1.25;;
16426;SDS011;8322;-33.900;151.170;2022-12-18T05:25:58;5.65;;;1.38;;
16426;SDS011;8322;-33.900;151.170;2022-12-18T05:28:28;3.95;;;0.95;;
16426;SDS011;8322;-33.900;151.170;2022-12-18T05:30:58;6.05;;;1.00;;
16426;SDS011;8322;-33.900;151.170;2022-12-18T05:33:29;4.68;;;1.27;;
16426;SDS011;8322;-33.900;151.170;2022-12-18T05:36:01;9.15;;;1.38;;
16426;SDS011;8322;-33.900;151.170;2022-12-18T05:38:31;4.85;;;1.20;;
16426;SDS011;8322;-33.900;151.170;2022-12-18T05:41:02;5.70;;;1.42;;
16426;SDS011;8322;-33.900;151.170;2022-12-18T05:43:33;7.18;;;1.38;;
16426;SDS011;8322;-33.900;151.170;2022-12-18T05:46:06;3.72;;;1.25;;
16426;SDS011;8322;-33.900;151.170;2022-12-18T05:48:35;5.18;;;1.50;;
16426;SDS011;8322;-33.900;151.170;2022-12-18T05:51:08;7.30;;;1.23;;
16426;SDS011;8322;-33.900;151.170;2022-12-18T05:53:37;7.05;;;2.30;;
16426;SDS011;8322;-33.900;151.170;2022-12-18T05:56:07;7.03;;;1.50;;
16426;SDS011;8322;-33.900;151.170;2022-12-18T05:58:37;7.50;;;1.40;;
16426;SDS011;8322;-33.900;151.170;2022-12-18T06:01:08;5.78;;;1.58;;
16426;SDS011;8322;-33.900;151.170;2022-12-18T06:03:38;7.97;;;1.45;;
16426;SDS011;8322;-33.900;151.170;2022-12-18T06:06:14;7.03;;;1.88;;
16426;SDS011;8322;-33.900;151.170;2022-12-18T06:08:44;8.45;;;1.73;;
16426;SDS011;8322;-33.900;151.170;2022-12-18T06:11:15;8.48;;;1.70;;
16426;SDS011;8322;-33.900;151.170;2022-12-18T06:13:45;7.38;;;1.95;;
16426;SDS011;8322;-33.900;151.170;2022-12-18T06:16:15;12.50;;;1.77;;
16426;SDS011;8322;-33.900;151.170;2022-12-18T06:18:47;9.52;;;1.92;;
16426;SDS011;8322;-33.900;151.170;2022-12-18T06:21:19;12.07;;;2.30;;
16426;SDS011;8322;-33.900;151.170;2022-12-18T06:23:48;11.38;;;2.25;;
16426;SDS011;8322;-33.900;151.170;2022-12-18T06:26:18;7.38;;;2.08;;
16426;SDS011;8322;-33.900;151.170;2022-12-18T06:28:48;9.10;;;2.20;;
16426;SDS011;8322;-33.900;151.170;2022-12-18T06:31:17;7.50;;;2.13;;
16426;SDS011;8322;-33.900;151.170;2022-12-18T06:33:47;8.55;;;2.28;;
16426;SDS011;8322;-33.900;151.170;2022-12-18T06:36:18;8.27;;;1.92;;
16426;SDS011;8322;-33.900;151.170;2022-12-18T06:38:48;7.18;;;1.30;;
16426;SDS011;8322;-33.900;151.170;2022-12-18T06:41:18;7.90;;;1.60;;
16426;SDS011;8322;-33.900;151.170;2022-12-18T06:43:47;6.82;;;1.48;;
16426;SDS011;8322;-33.900;151.170;2022-12-18T06:46:17;7.25;;;1.40;;
16426;SDS011;8322;-33.900;151.170;2022-12-18T06:48:47;5.75;;;1.50;;
16426;SDS011;8322;-33.900;151.170;2022-12-18T06:51:20;5.72;;;1.67;;
16426;SDS011;8322;-33.900;151.170;2022-12-18T06:53:50;8.27;;;1.77;;
16426;SDS011;8322;-33.900;151.170;2022-12-18T06:56:19;3.97;;;1.33;;
16426;SDS011;8322;-33.900;151.170;2022-12-18T06:58:49;5.05;;;1.38;;
16426;SDS011;8322;-33.900;151.170;2022-12-18T07:01:18;6.13;;;1.52;;
16426;SDS011;8322;-33.900;151.170;2022-12-18T07:03:51;5.25;;;1.10;;
16426;SDS011;8322;-33.900;151.170;2022-12-18T07:06:24;6.47;;;1.20;;
16426;SDS011;8322;-33.900;151.170;2022-12-18T07:08:53;4.20;;;1.27;;
16426;SDS011;8322;-33.900;151.170;2022-12-18T07:11:23;4.50;;;1.30;;
16426;SDS011;8322;-33.900;151.170;2022-12-18T07:13:53;5.22;;;1.50;;
16426;SDS011;8322;-33.900;151.170;2022-12-18T07:16:22;7.70;;;1.58;;
16426;SDS011;8322;-33.900;151.170;2022-12-18T07:18:52;6.82;;;1.63;;
16426;SDS011;8322;-33.900;151.170;2022-12-18T07:21:24;7.03;;;1.20;;
16426;SDS011;8322;-33.900;151.170;2022-12-18T07:23:53;5.35;;;1.40;;
16426;SDS011;8322;-33.900;151.170;2022-12-18T07:26:23;4.60;;;1.35;;
16426;SDS011;8322;-33.900;151.170;2022-12-18T07:28:54;5.88;;;1.42;;
16426;SDS011;8322;-33.900;151.170;2022-12-18T07:31:24;5.68;;;1.55;;
16426;SDS011;8322;-33.900;151.170;2022-12-18T07:33:54;8.82;;;2.15;;
16426;SDS011;8322;-33.900;151.170;2022-12-18T07:36:25;6.80;;;1.95;;
16426;SDS011;8322;-33.900;151.170;2022-12-18T07:38:55;8.55;;;1.98;;
16426;SDS011;8322;-33.900;151.170;2022-12-18T07:41:24;7.68;;;2.00;;
16426;SDS011;8322;-33.900;151.170;2022-12-18T07:43:54;6.75;;;1.63;;
16426;SDS011;8322;-33.900;151.170;2022-12-18T07:46:23;9.75;;;2.25;;
16426;SDS011;8322;-33.900;151.170;2022-12-18T07:48:53;9.13;;;1.63;;
16426;SDS011;8322;-33.900;151.170;2022-12-18T07:51:23;6.75;;;1.50;;
16426;SDS011;8322;-33.900;151.170;2022-12-18T07:53:54;6.00;;;1.55;;
16426;SDS011;8322;-33.900;151.170;2022-12-18T07:56:24;10.85;;;2.13;;
16426;SDS011;8322;-33.900;151.170;2022-12-18T07:58:53;11.20;;;1.80;;
16426;SDS011;8322;-33.900;151.170;2022-12-18T08:01:23;9.60;;;2.00;;
16426;SDS011;8322;-33.900;151.170;2022-12-18T08:03:53;8.98;;;1.65;;
16426;SDS011;8322;-33.900;151.170;2022-12-18T08:06:22;8.43;;;2.08;;
16426;SDS011;8322;-33.900;151.170;2022-12-18T08:08:52;8.07;;;1.63;;
16426;SDS011;8322;-33.900;151.170;2022-12-18T08:11:24;8.07;;;1.60;;
16426;SDS011;8322;-33.900;151.170;2022-12-18T08:13:54;7.60;;;1.73;;
16426;SDS011;8322;-33.900;151.170;2022-12-18T08:16:24;6.40;;;1.83;;
16426;SDS011;8322;-33.900;151.170;2022-12-18T08:18:53;3.63;;;1.42;;
16426;SDS011;8322;-33.900;151.170;2022-12-18T08:21:23;4.72;;;1.27;;
16426;SDS011;8322;-33.900;151.170;2022-12-18T08:23:53;8.82;;;6.35;;
16426;SDS011;8322;-33.900;151.170;2022-12-18T08:26:25;4.65;;;1.67;;
16426;SDS011;8322;-33.900;151.170;2022-12-18T08:28:55;4.38;;;1.17;;
16426;SDS011;8322;-33.900;151.170;2022-12-18T08:31:25;4.97;;;1.50;;
16426;SDS011;8322;-33.900;151.170;2022-12-18T08:33:55;9.48;;;4.43;;
16426;SDS011;8322;-33.900;151.170;2022-12-18T08:36:24;6.15;;;3.17;;
16426;SDS011;8322;-33.900;151.170;2022-12-18T08:38:54;7.50;;;2.47;;
16426;SDS011;8322;-33.900;151.170;2022-12-18T08:41:25;5.40;;;1.80;;
16426;SDS011;8322;-33.900;151.170;2022-12-18T08:43:55;6.43;;;2.05;;
16426;SDS011;8322;-33.900;151.170;2022-12-18T08:46:41;7.40;;;2.38;;
16426;SDS011;8322;-33.900;151.170;2022-12-18T08:49:11;8.48;;;2.70;;
16426;SDS011;8322;-33.900;151.170;2022-12-18T08:51:41;8.02;;;3.30;;
16426;SDS011;8322;-33.900;151.170;2022-12-18T08:54:11;7.63;;;2.60;;
16426;SDS011;8322;-33.900;151.170;2022-12-18T08:56:43;9.05;;;1.65;;
16426;SDS011;8322;-33.900;151.170;2022-12-18T08:59:12;8.18;;;2.20;;
16426;SDS011;8322;-33.900;151.170;2022-12-18T09:01:42;11.57;;;6.18;;
16426;SDS011;8322;-33.900;151.170;2022-12-18T09:04:11;6.72;;;3.25;;
16426;SDS011;8322;-33.900;151.170;2022-12-18T09:06:41;6.65;;;2.90;;
16426;SDS011;8322;-33.900;151.170;2022-12-18T09:09:11;7.70;;;3.13;;
16426;SDS011;8322;-33.900;151.170;2022-12-18T09:11:42;3.35;;;2.97;;
16426;SDS011;8322;-33.900;151.170;2022-12-18T09:14:12;6.75;;;3.40;;
16426;SDS011;8322;-33.900;151.170;2022-12-18T09:16:41;5.10;;;2.90;;
16426;SDS011;8322;-33.900;151.170;2022-12-18T09:19:11;5.30;;;2.22;;
16426;SDS011;8322;-33.900;151.170;2022-12-18T09:21:40;6.15;;;2.97;;
16426;SDS011;8322;-33.900;151.170;2022-12-18T09:24:11;5.45;;;3.10;;
16426;SDS011;8322;-33.900;151.170;2022-12-18T09:26:45;6.60;;;2.40;;
16426;SDS011;8322;-33.900;151.170;2022-12-18T09:29:14;6.78;;;2.00;;
16426;SDS011;8322;-33.900;151.170;2022-12-18T09:31:44;7.57;;;2.42;;
16426;SDS011;8322;-33.900;151.170;2022-12-18T09:34:15;5.97;;;2.28;;
16426;SDS011;8322;-33.900;151.170;2022-12-18T09:36:47;7.88;;;2.17;;
16426;SDS011;8322;-33.900;151.170;2022-12-18T09:39:17;8.63;;;2.40;;
16426;SDS011;8322;-33.900;151.170;2022-12-18T09:41:50;8.95;;;1.90;;
16426;SDS011;8322;-33.900;151.170;2022-12-18T09:44:23;6.70;;;2.42;;
16426;SDS011;8322;-33.900;151.170;2022-12-18T09:46:54;7.35;;;2.70;;
16426;SDS011;8322;-33.900;151.170;2022-12-18T09:49:27;9.70;;;1.92;;
16426;SDS011;8322;-33.900;151.170;2022-12-18T09:51:59;10.00;;;1.80;;
16426;SDS011;8322;-33.900;151.170;2022-12-18T09:54:31;6.20;;;1.58;;
16426;SDS011;8322;-33.900;151.170;2022-12-18T09:57:04;5.75;;;1.33;;
16426;SDS011;8322;-33.900;151.170;2022-12-18T09:59:36;8.43;;;1.60;;
16426;SDS011;8322;-33.900;151.170;2022-12-18T10:02:16;6.72;;;1.50;;
16426;SDS011;8322;-33.900;151.170;2022-12-18T10:04:48;6.38;;;1.50;;
16426;SDS011;8322;-33.900;151.170;2022-12-18T10:07:21;8.65;;;1.80;;
16426;SDS011;8322;-33.900;151.170;2022-12-18T10:09:53;7.95;;;1.38;;
16426;SDS011;8322;-33.900;151.170;2022-12-18T10:12:28;10.38;;;1.50;;
16426;SDS011;8322;-33.900;151.170;2022-12-18T10:15:02;7.50;;;1.80;;
16426;SDS011;8322;-33.900;151.170;2022-12-18T10:17:35;8.98;;;1.33;;
16426;SDS011;8322;-33.900;151.170;2022-12-18T10:20:10;7.88;;;1.20;;
16426;SDS011;8322;-33.900;151.170;2022-12-18T10:22:44;10.38;;;1.52;;
16426;SDS011;8322;-33.900;151.170;2022-12-18T10:25:18;5.13;;;1.40;;
16426;SDS011;8322;-33.900;151.170;2022-12-18T10:27:52;5.43;;;1.40;;
16426;SDS011;8322;-33.900;151.170;2022-12-18T10:30:23;6.15;;;1.50;;
16426;SDS011;8322;-33.900;151.170;2022-12-18T10:32:52;19.25;;;8.10;;
16426;SDS011;8322;-33.900;151.170;2022-12-18T10:35:23;14.95;;;5.70;;
16426;SDS011;8322;-33.900;151.170;2022-12-18T10:38:06;11.90;;;3.78;;
16426;SDS011;8322;-33.900;151.170;2022-12-18T10:40:47;9.50;;;2.20;;
16426;SDS011;8322;-33.900;151.170;2022-12-18T10:43:21;8.70;;;2.20;;
16426;SDS011;8322;-33.900;151.170;2022-12-18T10:46:02;8.15;;;1.80;;
16426;SDS011;8322;-33.900;151.170;2022-12-18T10:48:32;10.07;;;1.65;;
16426;SDS011;8322;-33.900;151.170;2022-12-18T10:51:02;5.32;;;1.83;;
16426;SDS011;8322;-33.900;151.170;2022-12-18T10:53:32;8.10;;;2.50;;
16426;SDS011;8322;-33.900;151.170;2022-12-18T10:56:03;8.75;;;2.15;;
16426;SDS011;8322;-33.900;151.170;2022-12-18T10:58:36;8.13;;;2.35;;
16426;SDS011;8322;-33.900;151.170;2022-12-18T11:01:09;8.45;;;2.13;;
16426;SDS011;8322;-33.900;151.170;2022-12-18T11:03:40;9.50;;;2.00;;
16426;SDS011;8322;-33.900;151.170;2022-12-18T11:06:10;7.30;;;2.05;;
16426;SDS011;8322;-33.900;151.170;2022-12-18T11:08:40;8.52;;;1.75;;
16426;SDS011;8322;-33.900;151.170;2022-12-18T11:11:15;10.02;;;1.98;;
16426;SDS011;8322;-33.900;151.170;2022-12-18T11:13:55;10.20;;;2.22;;
16426;SDS011;8322;-33.900;151.170;2022-12-18T11:16:27;9.98;;;2.42;;
16426;SDS011;8322;-33.900;151.170;2022-12-18T11:19:09;6.57;;;2.25;;
16426;SDS011;8322;-33.900;151.170;2022-12-18T11:21:39;11.82;;;2.53;;
16426;SDS011;8322;-33.900;151.170;2022-12-18T11:24:15;9.20;;;2.38;;
16426;SDS011;8322;-33.900;151.170;2022-12-18T11:26:48;11.48;;;2.67;;
16426;SDS011;8322;-33.900;151.170;2022-12-18T11:29:27;11.25;;;2.63;;
16426;SDS011;8322;-33.900;151.170;2022-12-18T11:34:41;11.45;;;2.70;;
16426;SDS011;8322;-33.900;151.170;2022-12-18T11:37:11;12.63;;;2.30;;
16426;SDS011;8322;-33.900;151.170;2022-12-18T11:39:41;11.85;;;2.50;;
16426;SDS011;8322;-33.900;151.170;2022-12-18T11:42:12;10.85;;;2.58;;
16426;SDS011;8322;-33.900;151.170;2022-12-18T11:44:47;15.15;;;3.20;;
16426;SDS011;8322;-33.900;151.170;2022-12-18T11:47:21;16.85;;;3.35;;
16426;SDS011;8322;-33.900;151.170;2022-12-18T11:49:52;10.93;;;2.38;;
16426;SDS011;8322;-33.900;151.170;2022-12-18T11:52:23;16.27;;;3.10;;
16426;SDS011;8322;-33.900;151.170;2022-12-18T11:54:53;9.85;;;2.10;;
16426;SDS011;8322;-33.900;151.170;2022-12-18T11:57:26;16.27;;;2.85;;
16426;SDS011;8322;-33.900;151.170;2022-12-18T12:00:00;10.93;;;2.20;;
16426;SDS011;8322;-33.900;151.170;2022-12-18T12:02:42;12.57;;;2.30;;
16426;SDS011;8322;-33.900;151.170;2022-12-18T12:05:20;9.02;;;2.08;;
16426;SDS011;8322;-33.900;151.170;2022-12-18T12:07:54;10.70;;;2.13;;
16426;SDS011;8322;-33.900;151.170;2022-12-18T12:10:33;9.10;;;1.88;;
16426;SDS011;8322;-33.900;151.170;2022-12-18T12:13:08;10.00;;;1.75;;
16426;SDS011;8322;-33.900;151.170;2022-12-18T12:15:45;10.90;;;2.00;;
16426;SDS011;8322;-33.900;151.170;2022-12-18T12:18:22;8.50;;;1.90;;
16426;SDS011;8322;-33.900;151.170;2022-12-18T12:20:57;8.20;;;1.92;;
16426;SDS011;8322;-33.900;151.170;2022-12-18T12:23:32;10.95;;;2.10;;
16426;SDS011;8322;-33.900;151.170;2022-12-18T12:26:03;7.22;;;1.50;;
16426;SDS011;8322;-33.900;151.170;2022-12-18T12:28:41;8.90;;;1.42;;
16426;SDS011;8322;-33.900;151.170;2022-12-18T12:31:16;6.63;;;1.27;;
16426;SDS011;8322;-33.900;151.170;2022-12-18T12:33:51;6.10;;;1.58;;
16426;SDS011;8322;-33.900;151.170;2022-12-18T12:36:25;6.25;;;1.35;;
16426;SDS011;8322;-33.900;151.170;2022-12-18T12:39:01;22.58;;;9.13;;
16426;SDS011;8322;-33.900;151.170;2022-12-18T12:41:31;7.05;;;1.42;;
16426;SDS011;8322;-33.900;151.170;2022-12-18T12:44:19;8.88;;;1.60;;
16426;SDS011;8322;-33.900;151.170;2022-12-18T12:46:52;8.43;;;1.67;;
16426;SDS011;8322;-33.900;151.170;2022-12-18T12:49:25;6.80;;;1.40;;
16426;SDS011;8322;-33.900;151.170;2022-12-18T12:51:57;8.70;;;1.30;;
16426;SDS011;8322;-33.900;151.170;2022-12-18T12:54:28;8.43;;;1.75;;
16426;SDS011;8322;-33.900;151.170;2022-12-18T12:56:57;6.93;;;1.70;;
16426;SDS011;8322;-33.900;151.170;2022-12-18T12:59:31;9.52;;;1.27;;
16426;SDS011;8322;-33.900;151.170;2022-12-18T13:02:09;7.97;;;1.95;;
16426;SDS011;8322;-33.900;151.170;2022-12-18T13:04:45;10.57;;;2.00;;
16426;SDS011;8322;-33.900;151.170;2022-12-18T13:07:18;13.32;;;2.72;;
16426;SDS011;8322;-33.900;151.170;2022-12-18T13:12:36;16.38;;;2.97;;
16426;SDS011;8322;-33.900;151.170;2022-12-18T13:15:25;12.35;;;2.53;;
16426;SDS011;8322;-33.900;151.170;2022-12-18T13:20:44;15.20;;;3.00;;
16426;SDS011;8322;-33.900;151.170;2022-12-18T13:28:52;20.02;;;2.88;;
16426;SDS011;8322;-33.900;151.170;2022-12-18T13:34:12;14.00;;;2.67;;
16426;SDS011;8322;-33.900;151.170;2022-12-18T13:36:46;16.15;;;3.83;;
16426;SDS011;8322;-33.900;151.170;2022-12-18T13:39:22;16.52;;;2.90;;
16426;SDS011;8322;-33.900;151.170;2022-12-18T13:41:53;18.23;;;3.70;;
16426;SDS011;8322;-33.900;151.170;2022-12-18T13:44:24;18.08;;;3.00;;
16426;SDS011;8322;-33.900;151.170;2022-12-18T13:46:54;21.42;;;3.20;;
16426;SDS011;8322;-33.900;151.170;2022-12-18T13:49:25;18.60;;;3.55;;
16426;SDS011;8322;-33.900;151.170;2022-12-18T13:51:57;18.17;;;3.97;;
16426;SDS011;8322;-33.900;151.170;2022-12-18T13:54:28;16.52;;;3.10;;
16426;SDS011;8322;-33.900;151.170;2022-12-18T13:56:59;19.58;;;3.05;;
16426;SDS011;8322;-33.900;151.170;2022-12-18T13:59:33;22.73;;;3.22;;
16426;SDS011;8322;-33.900;151.170;2022-12-18T14:02:07;20.13;;;3.17;;
16426;SDS011;8322;-33.900;151.170;2022-12-18T14:04:44;18.00;;;3.42;;
16426;SDS011;8322;-33.900;151.170;2022-12-18T14:07:16;19.50;;;3.83;;
16426;SDS011;8322;-33.900;151.170;2022-12-18T14:09:47;22.65;;;3.38;;
16426;SDS011;8322;-33.900;151.170;2022-12-18T14:12:18;19.95;;;3.40;;
16426;SDS011;8322;-33.900;151.170;2022-12-18T14:15:06;17.02;;;2.83;;
16426;SDS011;8322;-33.900;151.170;2022-12-18T14:17:38;17.70;;;3.58;;
16426;SDS011;8322;-33.900;151.170;2022-12-18T14:20:12;21.63;;;2.95;;
16426;SDS011;8322;-33.900;151.170;2022-12-18T14:22:45;18.13;;;3.03;;
16426;SDS011;8322;-33.900;151.170;2022-12-18T14:25:18;20.10;;;2.92;;
16426;SDS011;8322;-33.900;151.170;2022-12-18T14:27:49;17.20;;;3.00;;
16426;SDS011;8322;-33.900;151.170;2022-12-18T14:30:28;16.27;;;2.97;;
16426;SDS011;8322;-33.900;151.170;2022-12-18T14:33:02;16.27;;;2.88;;
16426;SDS011;8322;-33.900;151.170;2022-12-18T14:35:32;15.90;;;3.25;;
16426;SDS011;8322;-33.900;151.170;2022-12-18T14:38:15;20.02;;;3.53;;
16426;SDS011;8322;-33.900;151.170;2022-12-18T14:40:47;18.52;;;2.95;;
16426;SDS011;8322;-33.900;151.170;2022-12-18T14:43:16;15.80;;;2.88;;
16426;SDS011;8322;-33.900;151.170;2022-12-18T14:45:46;18.38;;;3.22;;
16426;SDS011;8322;-33.900;151.170;2022-12-18T14:48:16;19.67;;;2.88;;
16426;SDS011;8322;-33.900;151.170;2022-12-18T14:50:54;12.50;;;2.38;;
16426;SDS011;8322;-33.900;151.170;2022-12-18T14:53:27;12.27;;;2.30;;
16426;SDS011;8322;-33.900;151.170;2022-12-18T14:55:59;13.07;;;2.85;;
16426;SDS011;8322;-33.900;151.170;2022-12-18T14:58:29;9.15;;;1.98;;
16426;SDS011;8322;-33.900;151.170;2022-12-18T15:00:58;18.00;;;2.90;;
16426;SDS011;8322;-33.900;151.170;2022-12-18T15:03:28;14.02;;;2.67;;